Time;durP1;ratioP1;P1;durP2;ratioP2;P2;SDS_P1;SDS_P2;PMS_P1;PMS_P2;Temp;Humidity;BMP_temperature;BMP_pressure;BME280_temperature;BME280_humidity;BME280_pressure;Samples;Min_cycle;Max_cycle;Signal;HPM_P1;HPM_P2
2023/02/11 00:00:22;;;;;;;46.65;22.50;;;;;;;4.25;99.51;102170.59;5176072;28;20061;-74
2023/02/11 00:02:52;;;;;;;48.10;23.98;;;;;;;4.20;100.00;102174.84;5177495;28;20267;-73
2023/02/11 00:05:23;;;;;;;53.85;23.20;;;;;;;4.26;99.62;102167.16;5178840;28;20059;-74
2023/02/11 00:07:53;;;;;;;42.65;23.30;;;;;;;4.21;99.96;102155.88;5177418;28;20097;-75
2023/02/11 00:10:23;;;;;;;46.95;23.17;;;;;;;4.21;100.00;102154.97;5178713;28;20057;-75
2023/02/11 00:12:54;;;;;;;49.17;23.30;;;;;;;4.32;100.00;102151.69;5177798;28;20056;-75
2023/02/11 00:15:24;;;;;;;48.60;23.35;;;;;;;4.25;100.00;102157.66;5179427;28;20026;-73
2023/02/11 00:17:54;;;;;;;47.28;23.13;;;;;;;4.39;100.00;102138.03;5175681;28;20443;-73
2023/02/11 00:20:25;;;;;;;49.13;24.85;;;;;;;4.27;100.00;102126.63;5178835;28;20028;-73
2023/02/11 00:22:55;;;;;;;49.60;24.27;;;;;;;4.32;100.00;102136.19;5179683;28;20076;-75
2023/02/11 00:25:25;;;;;;;48.47;24.27;;;;;;;4.27;100.00;102130.06;5177831;28;20029;-75
2023/02/11 00:27:56;;;;;;;44.55;24.80;;;;;;;4.41;100.00;102133.75;5163792;28;20026;-75
2023/02/11 00:30:26;;;;;;;46.10;24.25;;;;;;;4.42;100.00;102144.94;5179041;28;20022;-75
2023/02/11 00:32:56;;;;;;;53.92;25.38;;;;;;;4.40;100.00;102142.34;5178865;28;20517;-73
2023/02/11 00:35:27;;;;;;;49.33;24.92;;;;;;;4.43;100.00;102152.75;5176650;28;20061;-74
2023/02/11 00:37:57;;;;;;;54.63;25.80;;;;;;;4.46;100.00;102142.44;5178812;28;20029;-73
2023/02/11 00:40:28;;;;;;;49.70;26.02;;;;;;;4.50;100.00;102133.84;5177619;28;20080;-74
2023/02/11 00:42:58;;;;;;;51.63;25.30;;;;;;;4.51;100.00;102130.44;5177773;28;20112;-74
2023/02/11 00:45:29;;;;;;;53.72;26.40;;;;;;;4.45;100.00;102135.50;5178063;28;20030;-75
2023/02/11 00:47:59;;;;;;;51.38;26.13;;;;;;;4.49;100.00;102137.28;5178612;28;20476;-73
2023/02/11 00:50:30;;;;;;;52.00;26.13;;;;;;;4.50;100.00;102138.19;5179034;28;20033;-74
2023/02/11 00:53:00;;;;;;;53.47;26.60;;;;;;;4.60;100.00;102130.56;5176137;28;20076;-74
2023/02/11 00:55:30;;;;;;;54.30;27.90;;;;;;;4.58;100.00;102139.13;5176672;28;20057;-73
2023/02/11 00:58:01;;;;;;;51.45;26.55;;;;;;;4.55;100.00;102150.34;5178452;28;20034;-76
2023/02/11 01:00:31;;;;;;;46.45;25.92;;;;;;;4.66;100.00;102156.50;5177479;28;20026;-74
2023/02/11 01:03:01;;;;;;;54.83;27.65;;;;;;;4.58;100.00;102158.13;5178825;28;20113;-74
2023/02/11 01:05:32;;;;;;;50.55;26.95;;;;;;;4.64;100.00;102159.94;5178657;28;20123;-75
2023/02/11 01:08:02;;;;;;;58.25;27.98;;;;;;;4.76;100.00;102163.56;5178001;28;20065;-76
2023/02/11 01:10:32;;;;;;;57.40;28.60;;;;;;;4.76;100.00;102179.09;5176808;28;20479;-75
2023/02/11 01:13:05;;;;;;;56.35;28.73;;;;;;;4.80;100.00;102172.25;5175173;28;20096;-75
2023/02/11 01:15:35;;;;;;;57.85;28.60;;;;;;;4.81;100.00;102167.06;5180792;28;20026;-75
2023/02/11 01:18:05;;;;;;;53.25;28.15;;;;;;;4.81;100.00;102161.03;5176406;28;20423;-74
2023/02/11 01:20:36;;;;;;;59.00;29.17;;;;;;;4.84;100.00;102156.75;5168729;28;20472;-74
2023/02/11 01:23:06;;;;;;;58.03;29.35;;;;;;;4.89;100.00;102143.88;5176438;28;20109;-74
2023/02/11 01:25:36;;;;;;;59.00;30.48;;;;;;;4.86;100.00;102134.34;5177245;28;20040;-74
2023/02/11 01:28:15;;;;;;;66.38;30.45;;;;;;;5.00;100.00;102111.19;5176798;28;20041;-73
2023/02/11 01:30:45;;;;;;;62.67;30.25;;;;;;;5.01;100.00;102118.13;5178653;28;20029;-74
2023/02/11 01:33:16;;;;;;;65.97;32.17;;;;;;;5.08;100.00;102118.22;5176835;28;20032;-76
2023/02/11 01:35:46;;;;;;;67.28;32.47;;;;;;;5.11;100.00;102120.81;5177552;28;20107;-73
2023/02/11 01:38:20;;;;;;;64.55;32.20;;;;;;;5.16;100.00;102119.16;5178718;28;20064;-73
2023/02/11 01:40:57;;;;;;;66.95;31.42;;;;;;;5.30;100.00;102125.34;5180824;28;20041;-74
2023/02/11 01:43:31;;;;;;;63.53;31.40;;;;;;;5.36;100.00;102121.97;5178750;28;20061;-74
2023/02/11 01:46:03;;;;;;;67.95;33.80;;;;;;;5.38;100.00;102119.38;5178939;28;20483;-73
2023/02/11 01:48:40;;;;;;;60.88;29.63;;;;;;;5.54;100.00;102123.03;5167381;28;20034;-73
2023/02/11 01:51:16;;;;;;;60.13;32.08;;;;;;;5.57;100.00;102108.34;5181131;28;20030;-74
2023/02/11 02:00:05;;;;;;;71.28;34.22;;;;;;;5.68;100.00;102105.84;5168784;28;20064;-74
2023/02/11 02:02:35;;;;;;;73.45;34.97;;;;;;;5.81;100.00;102097.34;5180453;28;20033;-75
2023/02/11 02:05:14;;;;;;;68.15;33.72;;;;;;;5.77;100.00;102106.78;5179813;28;20038;-73
2023/02/11 02:07:55;;;;;;;74.05;32.70;;;;;;;5.82;100.00;102099.06;5176209;28;20110;-74
2023/02/11 02:10:27;;;;;;;70.50;33.65;;;;;;;5.74;100.00;102100.72;5175117;28;20475;-74
2023/02/11 02:15:36;;;;;;;66.95;35.10;;;;;;;5.73;100.00;102075.66;5145523;28;20353;-76
2023/02/11 02:18:28;;;;;;;65.93;33.50;;;;;;;5.77;100.00;102078.25;5157485;28;20038;-76
2023/02/11 02:21:26;;;;;;;69.85;34.45;;;;;;;5.79;100.00;102061.03;5161161;28;20029;-77
2023/02/11 02:24:20;;;;;;;69.10;33.95;;;;;;;5.81;100.00;102055.84;5154840;28;20019;-77
2023/02/11 02:27:09;;;;;;;72.32;34.95;;;;;;;5.81;100.00;102067.09;5150370;28;20031;-75
2023/02/11 02:30:07;;;;;;;67.43;33.65;;;;;;;5.78;100.00;102063.56;5146019;28;20026;-77
2023/02/11 02:32:47;;;;;;;72.97;33.58;;;;;;;5.78;100.00;102067.03;5150567;28;20031;-77
2023/02/11 02:35:21;;;;;;;67.75;32.58;;;;;;;5.90;100.00;102063.69;5149132;28;20027;-76
2023/02/11 02:38:20;;;;;;;70.45;34.92;;;;;;;5.82;100.00;102067.94;5151725;28;20085;-77
2023/02/11 02:41:02;;;;;;;63.78;32.15;;;;;;;5.85;100.00;102065.38;5145323;28;20106;-76
2023/02/11 02:43:33;;;;;;;70.00;34.95;;;;;;;5.83;100.00;102057.59;5148618;28;20026;-76
2023/02/11 02:46:24;;;;;;;69.68;33.55;;;;;;;5.83;100.00;102057.59;5134459;28;20031;-76
2023/02/11 02:48:55;;;;;;;64.97;33.05;;;;;;;5.87;100.00;102051.56;5143311;28;20127;-76
2023/02/11 02:51:41;;;;;;;63.30;32.85;;;;;;;5.88;100.00;102047.25;5146072;28;20489;-75
2023/02/11 02:54:42;;;;;;;69.70;35.40;;;;;;;5.75;100.00;102046.25;5149267;28;20030;-76
2023/02/11 02:57:37;;;;;;;69.00;34.40;;;;;;;5.78;100.00;102058.38;5150270;28;20045;-75
2023/02/11 03:00:41;;;;;;;68.07;35.05;;;;;;;5.83;100.00;102051.53;5148564;28;20035;-76
2023/02/11 03:03:32;;;;;;;66.88;33.60;;;;;;;5.91;100.00;102039.50;5133915;28;20565;-75
2023/02/11 03:06:16;;;;;;;66.40;33.47;;;;;;;5.84;100.00;102050.66;5142158;28;20507;-76
2023/02/11 03:08:53;;;;;;;66.32;33.03;;;;;;;5.87;100.00;102045.50;5150762;28;20568;-76
2023/02/11 03:11:25;;;;;;;64.95;32.65;;;;;;;5.86;100.00;102054.13;5146224;28;20030;-77
2023/02/11 03:13:59;;;;;;;70.65;35.95;;;;;;;5.86;100.00;102049.84;5142293;28;20026;-76
2023/02/11 03:16:36;;;;;;;69.13;34.58;;;;;;;5.87;100.00;102050.69;5147041;28;20073;-77
2023/02/11 03:19:12;;;;;;;70.35;35.22;;;;;;;5.80;100.00;102062.75;5150021;28;20109;-76
2023/02/11 03:21:45;;;;;;;72.40;35.58;;;;;;;5.87;100.00;102061.06;5132667;28;20029;-76
2023/02/11 03:24:22;;;;;;;67.57;34.92;;;;;;;5.86;100.00;102064.50;5137715;28;20047;-76
2023/02/11 03:26:56;;;;;;;68.88;33.95;;;;;;;5.87;100.00;102061.06;5146447;28;20033;-77
2023/02/11 03:29:32;;;;;;;69.18;35.45;;;;;;;5.85;100.00;102058.47;5145939;28;20041;-76
2023/02/11 03:32:16;;;;;;;71.03;34.75;;;;;;;5.84;100.00;102050.66;5141971;28;20114;-77
2023/02/11 03:34:56;;;;;;;69.88;36.83;;;;;;;5.92;100.00;102054.19;5147624;28;20130;-72
2023/02/11 03:37:33;;;;;;;67.70;34.45;;;;;;;5.89;100.00;102039.47;5147369;28;20393;-76
2023/02/11 03:40:09;;;;;;;73.50;34.28;;;;;;;5.94;100.00;102026.53;5142508;28;20093;-76
2023/02/11 03:42:44;;;;;;;;;;;;;;;5.84;100.00;102029.91;5147641;28;20043;-76
2023/02/11 03:45:18;;;;;;;68.78;33.80;;;;;;;5.83;100.00;102033.38;5145454;28;19968;-76
2023/02/11 03:47:54;;;;;;;65.35;34.38;;;;;;;5.89;100.00;102034.28;5141226;28;20579;-76
2023/02/11 03:50:29;;;;;;;68.70;33.15;;;;;;;5.91;100.00;102042.94;5148162;28;20031;-76
2023/02/11 03:53:01;;;;;;;67.40;34.72;;;;;;;5.96;100.00;102036.06;5140101;28;20045;-76
2023/02/11 03:55:35;;;;;;;69.05;34.95;;;;;;;5.80;100.00;102043.72;5143312;28;20042;-77
2023/02/11 03:58:06;;;;;;;67.80;33.55;;;;;;;5.89;100.00;102055.03;5147962;28;20033;-76
2023/02/11 04:00:39;;;;;;;67.22;34.22;;;;;;;5.93;100.00;102055.94;5148152;28;20085;-76
2023/02/11 04:03:11;;;;;;;65.20;32.17;;;;;;;5.94;100.00;102047.28;5152351;28;20050;-76
2023/02/11 04:05:41;;;;;;;69.75;34.58;;;;;;;5.91;100.00;102042.09;5150591;28;20442;-76
2023/02/11 04:08:12;;;;;;;65.47;34.50;;;;;;;5.89;100.00;102051.59;5149531;28;20117;-76
2023/02/11 04:10:42;;;;;;;67.82;34.50;;;;;;;5.91;100.00;102050.72;5148342;28;20058;-76
2023/02/11 04:13:13;;;;;;;67.18;33.15;;;;;;;5.88;100.00;102042.06;5139140;28;20022;-76
2023/02/11 04:15:43;;;;;;;65.20;33.45;;;;;;;5.87;100.00;102050.69;5137491;28;20033;-76
2023/02/11 04:18:13;;;;;;;67.32;34.58;;;;;;;5.89;100.00;102049.00;5142512;28;20035;-76
2023/02/11 04:20:44;;;;;;;73.78;35.30;;;;;;;5.83;100.00;102049.81;5146619;28;20026;-76
2023/02/11 04:23:14;;;;;;;69.15;33.90;;;;;;;5.81;100.00;102061.91;5147593;28;20027;-77
2023/02/11 04:25:44;;;;;;;65.68;32.25;;;;;;;5.93;100.00;102054.19;5141693;28;20065;-76
2023/02/11 04:28:14;;;;;;;74.88;35.50;;;;;;;5.83;100.00;102055.00;5144400;28;20054;-76
2023/02/11 04:30:45;;;;;;;68.70;34.40;;;;;;;5.85;100.00;102058.47;5147214;28;20361;-77
2023/02/11 04:33:15;;;;;;;67.03;34.08;;;;;;;5.75;100.00;102058.38;5148972;28;20042;-77
2023/02/11 04:35:46;;;;;;;69.63;35.05;;;;;;;5.82;100.00;102065.34;5145982;28;20042;-76
2023/02/11 04:38:16;;;;;;;64.47;33.80;;;;;;;5.83;100.00;102070.56;5143985;28;20038;-76
2023/02/11 04:40:46;;;;;;;71.00;35.03;;;;;;;5.84;100.00;102072.31;5147693;28;20195;-76
2023/02/11 04:43:17;;;;;;;73.93;34.08;;;;;;;5.86;100.00;102065.41;5146834;28;20030;-76
2023/02/11 04:45:47;;;;;;;66.63;34.60;;;;;;;5.83;100.00;102067.09;5141856;28;20120;-77
2023/02/11 04:48:17;;;;;;;73.25;34.00;;;;;;;5.86;100.00;102056.72;5144794;28;20116;-75
2023/02/11 04:50:48;;;;;;;68.30;34.80;;;;;;;5.77;100.00;102051.47;5144271;28;20528;-76
2023/02/11 04:53:18;;;;;;;69.20;34.85;;;;;;;5.80;100.00;102046.31;5147784;28;20031;-76
2023/02/11 04:55:49;;;;;;;73.70;36.35;;;;;;;5.79;100.00;102052.38;5148610;28;20026;-76
2023/02/11 04:58:19;;;;;;;72.57;36.08;;;;;;;5.70;100.00;102058.31;5146793;28;20049;-76
2023/02/11 05:00:50;;;;;;;75.15;37.20;;;;;;;5.65;100.00;102053.94;5146309;28;20165;-77
2023/02/11 05:03:20;;;;;;;75.97;36.33;;;;;;;5.66;100.00;102040.13;5147463;28;20026;-77
2023/02/11 05:05:50;;;;;;;74.53;37.38;;;;;;;5.59;100.00;102040.94;5142122;28;20023;-76
2023/02/11 05:08:21;;;;;;;70.45;35.95;;;;;;;5.66;100.00;102037.53;5143557;28;20061;-76
2023/02/11 05:10:51;;;;;;;74.00;37.20;;;;;;;5.56;100.00;102036.59;5150227;28;20054;-76
2023/02/11 05:13:21;;;;;;;73.18;37.17;;;;;;;5.60;100.00;102037.50;5147662;28;20030;-76
2023/02/11 05:15:52;;;;;;;76.70;38.03;;;;;;;5.64;100.00;102032.34;5144305;28;20289;-77
2023/02/11 05:18:22;;;;;;;81.68;38.33;;;;;;;5.64;100.00;102036.66;5140329;28;20038;-76
2023/02/11 05:20:52;;;;;;;73.93;38.20;;;;;;;5.65;100.00;102035.78;5148317;28;20138;-77
2023/02/11 05:23:23;;;;;;;79.68;37.30;;;;;;;5.67;100.00;102026.28;5153795;28;20033;-76
2023/02/11 05:25:53;;;;;;;79.60;37.33;;;;;;;5.59;100.00;102028.84;5147599;28;20038;-77
2023/02/11 05:28:23;;;;;;;75.15;35.85;;;;;;;5.55;100.00;102031.41;5149036;28;20422;-76
2023/02/11 05:30:54;;;;;;;82.00;42.47;;;;;;;5.66;100.00;102035.81;5154920;28;20092;-76
2023/02/11 05:33:25;;;;;;;71.47;36.17;;;;;;;5.76;100.00;102036.75;5149976;28;20038;-76
2023/02/11 05:35:59;;;;;;;75.95;36.42;;;;;;;5.71;100.00;102036.72;5146248;28;20042;-76
2023/02/11 05:38:29;;;;;;;76.38;37.25;;;;;;;5.67;100.00;102034.97;5149124;28;20030;-77
2023/02/11 05:41:00;;;;;;;75.60;37.00;;;;;;;5.72;100.00;102032.41;5154146;28;20037;-77
2023/02/11 05:43:31;;;;;;;68.32;35.30;;;;;;;5.65;100.00;102030.59;5153842;28;20486;-76
2023/02/11 05:46:03;;;;;;;71.78;35.60;;;;;;;5.75;100.00;102035.03;5144214;28;20414;-77
2023/02/11 05:48:33;;;;;;;67.13;34.90;;;;;;;5.63;100.00;102022.84;5144352;28;20304;-77
2023/02/11 05:51:04;;;;;;;70.38;36.13;;;;;;;5.68;100.00;102015.06;5147986;28;20122;-77
2023/02/11 05:53:34;;;;;;;67.82;33.95;;;;;;;5.69;100.00;102019.38;5149355;28;20030;-77
2023/02/11 05:56:05;;;;;;;61.28;33.72;;;;;;;5.66;100.00;102024.56;5145097;28;20045;-76
2023/02/11 05:58:35;;;;;;;59.72;33.42;;;;;;;5.71;100.00;102022.91;5146168;28;20030;-76
2023/02/11 06:01:05;;;;;;;61.67;34.33;;;;;;;5.73;100.00;102022.03;5151492;28;20044;-76
2023/02/11 06:03:36;;;;;;;61.05;32.47;;;;;;;5.72;100.00;102020.28;5152116;28;20073;-76
2023/02/11 06:06:12;;;;;;;55.50;30.25;;;;;;;5.82;100.00;102023.84;5147308;28;20307;-77
2023/02/11 06:08:43;;;;;;;54.33;30.83;;;;;;;5.83;100.00;102025.59;5148531;28;20488;-76
2023/02/11 06:11:14;;;;;;;61.22;31.17;;;;;;;5.82;100.00;102031.63;5152926;28;20038;-77
2023/02/11 06:13:45;;;;;;;57.55;30.70;;;;;;;5.88;100.00;102018.72;5151583;28;20030;-76
2023/02/11 06:16:15;;;;;;;53.65;30.10;;;;;;;5.79;100.00;102022.13;5145688;28;20089;-77
2023/02/11 06:18:45;;;;;;;55.35;30.08;;;;;;;5.77;100.00;102002.19;5139430;28;20033;-76
2023/02/11 06:21:16;;;;;;;51.67;28.58;;;;;;;5.82;100.00;102013.47;5149644;28;20065;-76
2023/02/11 06:23:46;;;;;;;47.03;27.05;;;;;;;5.82;100.00;102005.69;5155340;28;20469;-76
2023/02/11 06:26:19;;;;;;;47.05;28.13;;;;;;;5.85;100.00;102005.69;5146551;28;20077;-77
2023/02/11 06:28:49;;;;;;;51.83;28.52;;;;;;;5.89;100.00;102007.47;5132513;28;20026;-77
2023/02/11 06:31:20;;;;;;;48.20;28.30;;;;;;;5.92;100.00;102003.16;5146533;28;20049;-76
2023/02/11 06:33:50;;;;;;;50.78;28.30;;;;;;;5.90;100.00;102010.06;5151078;28;20285;-76
2023/02/11 06:36:21;;;;;;;47.75;25.85;;;;;;;5.90;100.00;102014.41;5142754;28;20054;-76
2023/02/11 06:38:52;;;;;;;48.03;26.30;;;;;;;5.84;100.00;102004.84;5147369;28;20026;-76
2023/02/11 06:41:22;;;;;;;47.17;27.50;;;;;;;5.94;100.00;102016.16;5153513;28;20029;-77
2023/02/11 06:43:53;;;;;;;46.03;26.08;;;;;;;5.91;100.00;102017.00;5150073;28;20052;-77
2023/02/11 06:46:23;;;;;;;45.70;25.48;;;;;;;6.05;100.00;102014.50;5143367;28;20177;-76
2023/02/11 06:48:54;;;;;;;41.67;25.65;;;;;;;6.09;100.00;102013.66;5148760;28;20030;-75
2023/02/11 06:51:24;;;;;;;45.92;26.65;;;;;;;6.03;100.00;102027.47;5146313;28;20022;-77
2023/02/11 06:53:54;;;;;;;48.22;25.95;;;;;;;6.11;100.00;102032.69;5151377;28;20079;-77
2023/02/11 06:56:27;;;;;;;48.63;27.33;;;;;;;6.08;100.00;102015.38;5142794;28;20026;-76
2023/02/11 06:58:58;;;;;;;47.13;26.33;;;;;;;6.10;100.00;102029.22;5141590;28;20093;-77
2023/02/11 07:01:28;;;;;;;49.42;27.73;;;;;;;6.11;100.00;102019.72;5142442;28;20027;-76
2023/02/11 07:03:58;;;;;;;47.03;26.55;;;;;;;6.08;100.00;102025.75;5143133;28;20081;-76
2023/02/11 07:06:29;;;;;;;49.47;27.70;;;;;;;6.13;100.00;102033.56;5144069;28;20038;-76
2023/02/11 07:08:59;;;;;;;51.42;27.75;;;;;;;6.13;100.00;102024.06;5145577;28;20459;-76
2023/02/11 07:11:30;;;;;;;55.42;28.60;;;;;;;6.25;100.00;102031.03;5145459;28;20026;-77
2023/02/11 07:14:05;;;;;;;52.72;28.50;;;;;;;6.20;100.00;102024.94;5146090;28;20034;-76
2023/02/11 07:16:35;;;;;;;56.13;29.13;;;;;;;6.23;100.00;102027.56;5142504;28;20113;-76
2023/02/11 07:19:06;;;;;;;50.20;28.13;;;;;;;6.15;100.00;102032.72;5143111;28;20114;-76
2023/02/11 07:21:36;;;;;;;48.92;27.05;;;;;;;6.23;100.00;102032.78;5153538;28;20088;-76
2023/02/11 07:24:10;;;;;;;56.30;27.38;;;;;;;6.25;100.00;102018.91;5167393;28;20050;-76
2023/02/11 07:26:40;;;;;;;56.08;28.52;;;;;;;6.26;100.00;102018.06;5142942;28;20058;-77
2023/02/11 07:29:10;;;;;;;51.85;28.33;;;;;;;6.19;100.00;102024.09;5143421;28;20119;-77
2023/02/11 07:31:41;;;;;;;50.88;28.23;;;;;;;6.27;100.00;102021.53;5141413;28;20033;-77
2023/02/11 07:34:11;;;;;;;51.83;28.08;;;;;;;6.26;100.00;102015.47;5146463;28;20057;-75
2023/02/11 07:36:44;;;;;;;54.83;29.50;;;;;;;6.26;100.00;102009.41;5147019;28;20259;-76
2023/02/11 07:39:15;;;;;;;53.05;28.67;;;;;;;6.25;100.00;102007.69;5147864;28;20019;-76
2023/02/11 07:41:47;;;;;;;53.17;28.92;;;;;;;6.28;100.00;102007.69;5148642;28;20467;-77
2023/02/11 07:44:18;;;;;;;55.97;29.33;;;;;;;6.28;100.00;102002.50;5145268;28;20018;-76
2023/02/11 07:46:48;;;;;;;59.33;29.30;;;;;;;6.35;100.00;102015.50;5144313;28;20082;-76
2023/02/11 07:49:18;;;;;;;53.67;29.15;;;;;;;6.33;100.00;102017.25;5145838;28;20167;-75
2023/02/11 07:51:50;;;;;;;59.63;30.23;;;;;;;6.40;100.00;102020.75;5149720;28;20050;-75
2023/02/11 07:54:20;;;;;;;58.83;29.67;;;;;;;6.42;100.00;102026.81;5146064;28;20031;-76
2023/02/11 07:56:51;;;;;;;55.05;29.98;;;;;;;6.49;100.00;102018.16;5146201;28;20447;-76
2023/02/11 07:59:23;;;;;;;60.45;30.55;;;;;;;6.52;100.00;102033.75;5145169;28;20055;-76
2023/02/11 08:01:53;;;;;;;57.95;28.63;;;;;;;6.41;100.00;102040.66;5148179;28;20025;-76
2023/02/11 08:04:24;;;;;;;55.92;29.65;;;;;;;6.38;100.00;102040.59;5146721;28;20294;-76
2023/02/11 08:06:56;;;;;;;60.97;30.38;;;;;;;6.43;100.00;102049.31;5148832;28;20121;-76
2023/02/11 08:09:26;;;;;;;59.08;30.73;;;;;;;6.55;100.00;102044.16;5149938;28;20027;-77
2023/02/11 08:11:56;;;;;;;61.28;30.35;;;;;;;6.42;100.00;102057.97;5150015;28;20397;-76
2023/02/11 08:14:27;;;;;;;66.10;32.15;;;;;;;6.53;100.00;102049.34;5188021;23;20045;-72
2023/02/11 08:16:57;;;;;;;59.05;30.48;;;;;;;6.58;100.00;102041.59;5185441;28;20029;-72
2023/02/11 08:19:28;;;;;;;62.17;31.13;;;;;;;6.49;100.00;102044.13;5191460;28;20030;-71
2023/02/11 08:22:00;;;;;;;57.50;31.00;;;;;;;6.59;100.00;102045.91;5204154;28;20032;-72
2023/02/11 08:24:30;;;;;;;65.68;31.77;;;;;;;6.63;100.00;102039.88;5203753;28;20033;-72
2023/02/11 08:27:00;;;;;;;64.47;31.98;;;;;;;6.67;100.00;102046.81;5207908;28;20036;-71
2023/02/11 08:29:31;;;;;;;60.00;29.75;;;;;;;6.66;100.00;102058.06;5208037;28;20086;-71
2023/02/11 08:32:01;;;;;;;61.78;31.65;;;;;;;6.62;100.00;102062.34;5196281;28;20399;-72
2023/02/11 08:34:31;;;;;;;62.17;31.02;;;;;;;6.66;100.00;102058.06;5194316;28;20017;-72
2023/02/11 08:37:02;;;;;;;66.78;33.13;;;;;;;6.64;100.00;102054.59;5201555;28;20048;-72
2023/02/11 08:39:32;;;;;;;66.70;32.83;;;;;;;6.64;100.00;102055.47;5206774;28;20486;-72
2023/02/11 08:42:02;;;;;;;63.90;32.15;;;;;;;6.68;100.00;102056.31;5205413;28;20036;-71
2023/02/11 08:44:33;;;;;;;63.15;32.85;;;;;;;6.67;100.00;102054.59;5203305;28;20021;-72
2023/02/11 08:47:03;;;;;;;67.90;34.38;;;;;;;6.72;100.00;102055.47;5209971;28;20032;-71
2023/02/11 08:49:34;;;;;;;70.88;33.03;;;;;;;6.74;100.00;102040.78;5208731;28;20048;-71
2023/02/11 08:52:04;;;;;;;62.80;32.67;;;;;;;6.71;100.00;102056.34;5206170;28;20116;-72
2023/02/11 08:54:36;;;;;;;63.28;30.77;;;;;;;6.80;100.00;102054.63;5203873;28;20116;-72
2023/02/11 08:57:06;;;;;;;65.28;32.30;;;;;;;6.79;100.00;102065.03;5208380;28;20115;-72
2023/02/11 08:59:38;;;;;;;57.15;30.85;;;;;;;6.78;100.00;102047.72;5187397;28;20526;-72
2023/02/11 09:02:12;;;;;;;65.97;32.70;;;;;;;6.75;100.00;102058.97;5195076;28;20017;-71
2023/02/11 09:04:43;;;;;;;71.57;33.13;;;;;;;6.84;100.00;102047.72;5201135;28;20036;-72
2023/02/11 09:07:13;;;;;;;68.78;32.63;;;;;;;6.96;100.00;102061.63;5202319;28;20602;-71
2023/02/11 09:09:43;;;;;;;59.85;32.38;;;;;;;6.88;100.00;102065.06;5208666;28;20170;-72
2023/02/11 09:12:14;;;;;;;59.50;31.73;;;;;;;6.87;100.00;102064.19;5204340;28;20091;-72
2023/02/11 09:14:44;;;;;;;61.63;31.83;;;;;;;6.96;100.00;102064.22;5209541;28;20025;-72
2023/02/11 09:17:14;;;;;;;68.95;33.53;;;;;;;6.93;100.00;102072.00;5189936;28;20726;-71
2023/02/11 09:19:44;;;;;;;62.10;30.92;;;;;;;7.02;100.00;102061.66;5197196;28;20041;-72
2023/02/11 09:22:15;;;;;;;61.60;32.42;;;;;;;6.91;100.00;102081.53;5203740;28;20483;-71
2023/02/11 09:24:45;;;;;;;58.78;32.22;;;;;;;7.01;100.00;102077.22;5202408;28;20037;-71
2023/02/11 09:27:16;;;;;;;65.38;31.42;;;;;;;6.97;100.00;102083.28;5195179;28;20029;-71
2023/02/11 09:29:46;;;;;;;59.47;31.98;;;;;;;7.03;100.00;102084.19;5208994;28;20049;-72
2023/02/11 09:32:17;;;;;;;62.90;32.03;;;;;;;7.00;100.00;102083.28;5205652;28;20017;-72
2023/02/11 09:34:47;;;;;;;66.68;32.33;;;;;;;6.86;100.00;102082.38;5212836;28;20291;-71
2023/02/11 09:37:17;;;;;;;63.42;32.88;;;;;;;6.91;100.00;102091.06;5188300;28;20057;-71
2023/02/11 09:39:48;;;;;;;62.15;31.85;;;;;;;6.99;100.00;102102.34;5212027;28;20080;-72
2023/02/11 09:42:38;;;;;;;68.93;33.95;;;;;;;6.89;100.00;102114.44;5204317;28;20461;-71
2023/02/11 09:45:15;;;;;;;64.78;32.88;;;;;;;6.87;100.00;102120.50;5196038;28;20090;-71
2023/02/11 09:47:51;;;;;;;67.32;32.65;;;;;;;6.94;100.00;102128.31;5206333;28;20036;-72
2023/02/11 09:50:34;;;;;;;69.88;32.10;;;;;;;6.98;100.00;102111.00;5204455;28;20037;-70
2023/02/11 09:53:38;;;;;;;70.28;33.42;;;;;;;7.00;100.00;102115.38;5194763;28;20036;-71
2023/02/11 09:56:14;;;;;;;62.85;33.20;;;;;;;7.11;100.00;102105.00;5192072;28;20536;-71
2023/02/11 09:58:46;;;;;;;68.32;32.70;;;;;;;7.12;100.00;102117.97;5207712;28;20506;-71
2023/02/11 10:01:35;;;;;;;70.00;33.65;;;;;;;6.99;100.00;102112.75;5206240;28;20119;-72
2023/02/11 10:04:35;;;;;;;64.80;32.72;;;;;;;7.09;100.00;102120.56;5200161;28;20025;-71
2023/02/11 10:07:37;;;;;;;62.35;32.92;;;;;;;7.09;100.00;102127.53;5182137;28;20656;-71
2023/02/11 10:10:14;;;;;;;63.58;32.50;;;;;;;7.03;100.00;102128.38;5197882;28;20064;-71
2023/02/11 10:13:27;;;;;;;65.47;30.40;;;;;;;7.08;100.00;102138.78;5200128;28;20022;-71
2023/02/11 10:16:10;;;;;;;61.53;31.25;;;;;;;7.13;100.00;102131.88;5186385;28;20049;-71
2023/02/11 10:18:58;;;;;;;61.85;31.55;;;;;;;7.13;100.00;102135.31;5181822;28;20029;-72
2023/02/11 10:21:46;;;;;;;67.80;32.72;;;;;;;7.10;100.00;102126.66;5200640;28;20035;-72
2023/02/11 10:24:17;;;;;;;64.07;32.65;;;;;;;7.07;100.00;102129.25;5194765;28;20029;-71
2023/02/11 10:26:48;;;;;;;70.45;32.97;;;;;;;7.09;100.00;102127.53;5184218;28;20038;-70
2023/02/11 10:29:37;;;;;;;65.63;31.83;;;;;;;7.12;100.00;102124.94;5202861;28;20030;-71
2023/02/11 10:32:35;;;;;;;68.55;32.60;;;;;;;7.00;100.00;102125.75;5200071;28;20045;-72
2023/02/11 10:35:14;;;;;;;67.07;34.03;;;;;;;7.05;100.00;102130.94;5196897;28;20033;-71
2023/02/11 10:37:45;;;;;;;73.43;34.13;;;;;;;7.04;100.00;102119.72;5197360;28;20032;-71
2023/02/11 10:40:24;;;;;;;71.80;34.08;;;;;;;7.02;100.00;102123.16;5197689;28;20098;-71
2023/02/11 10:42:58;;;;;;;69.53;34.10;;;;;;;7.08;100.00;102120.59;5198114;28;20029;-71
2023/02/11 10:45:33;;;;;;;67.57;33.67;;;;;;;7.06;100.00;102124.88;5205469;28;20078;-71
2023/02/11 10:48:08;;;;;;;73.57;34.17;;;;;;;7.08;100.00;102128.38;5209801;28;20379;-71
2023/02/11 10:50:38;;;;;;;76.82;35.67;;;;;;;7.06;100.00;102123.16;5206397;28;20124;-71
2023/02/11 10:53:19;;;;;;;75.78;35.33;;;;;;;7.06;100.00;102127.50;5198471;28;20035;-71
2023/02/11 10:55:52;;;;;;;69.97;34.15;;;;;;;7.09;100.00;102123.19;5198867;28;20037;-71
2023/02/11 10:58:27;;;;;;;67.75;33.55;;;;;;;7.15;100.00;102120.63;5188517;28;20083;-70
2023/02/11 11:00:59;;;;;;;;;;;;;;;7.22;100.00;102123.22;5192741;28;20021;-71
2023/02/11 11:03:35;;;;;;;68.47;32.67;;;;;;;7.15;100.00;102132.72;5190187;28;20282;-71
2023/02/11 11:06:08;;;;;;;72.82;35.35;;;;;;;7.18;100.00;102136.22;5201009;28;20040;-71
2023/02/11 11:08:48;;;;;;;69.38;33.42;;;;;;;7.20;100.00;102136.22;5198656;28;20056;-72
2023/02/11 11:11:23;;;;;;;61.28;32.63;;;;;;;7.30;100.00;102131.91;5193240;28;20038;-71
2023/02/11 11:13:57;;;;;;;69.22;32.97;;;;;;;7.17;100.00;102134.47;5199286;28;20048;-71
2023/02/11 11:16:36;;;;;;;64.63;32.38;;;;;;;7.20;100.00;102139.69;5204601;28;20088;-72
2023/02/11 11:19:06;;;;;;;72.25;33.55;;;;;;;7.22;100.00;102139.69;5201619;28;20033;-71
2023/02/11 11:21:48;;;;;;;68.10;32.80;;;;;;;7.31;100.00;102143.16;5202775;28;20457;-72
2023/02/11 11:24:24;;;;;;;68.90;33.92;;;;;;;7.21;100.00;102135.34;5190007;28;20037;-71
2023/02/11 11:26:58;;;;;;;67.13;34.30;;;;;;;7.25;100.00;102140.56;5201473;28;20069;-71
2023/02/11 11:29:36;;;;;;;69.38;32.90;;;;;;;7.29;100.00;102132.78;5199817;28;20459;-71
2023/02/11 11:32:21;;;;;;;69.03;32.85;;;;;;;7.30;100.00;102131.91;5203411;28;20042;-72
2023/02/11 11:34:58;;;;;;;64.13;32.80;;;;;;;7.29;100.00;102137.97;5202048;28;20057;-71
2023/02/11 11:37:31;;;;;;;66.82;32.85;;;;;;;7.28;100.00;102127.56;5201947;28;20033;-71
2023/02/11 11:40:09;;;;;;;67.47;32.72;;;;;;;7.29;100.00;102143.19;5204150;28;20117;-71
2023/02/11 11:42:39;;;;;;;64.45;33.38;;;;;;;7.23;100.00;102144.91;5199742;28;20577;-72
2023/02/11 11:45:19;;;;;;;64.35;31.85;;;;;;;7.32;100.00;102143.19;5193181;28;20124;-71
2023/02/11 11:47:51;;;;;;;61.28;30.58;;;;;;;7.32;100.00;102137.97;5197503;28;20037;-71